createdAt,value
2023-02-26T00:01:23.762Z,94.40
2023-02-26T00:03:56.542Z,1.00
2023-02-26T00:06:24.881Z,1.00
2023-02-26T00:08:51.969Z,1.00
2023-02-26T00:11:19.213Z,1.00
2023-02-26T00:13:46.605Z,1.00
2023-02-26T00:16:35.507Z,1.00
2023-02-26T00:19:05.744Z,1.00
2023-02-26T00:21:33.924Z,1.00
2023-02-26T00:24:01.980Z,1.00
2023-02-26T00:26:30.856Z,1.00
2023-02-26T00:28:57.892Z,1.00
2023-02-26T00:31:25.199Z,1.00
2023-02-26T00:33:55.437Z,1.00
2023-02-26T00:36:29.857Z,1.00
2023-02-26T00:39:30.176Z,1.00
2023-02-26T00:41:57.166Z,1.00
2023-02-26T00:44:24.092Z,1.00
2023-02-26T00:46:50.690Z,1.00
2023-02-26T00:49:47.193Z,1.00
2023-02-26T00:52:39.728Z,1.00
2023-02-26T00:55:06.740Z,1.00
2023-02-26T00:57:33.326Z,1.00
2023-02-26T01:00:00.036Z,1.00
2023-02-26T01:02:27.108Z,1.00
2023-02-26T01:04:53.895Z,1.00
2023-02-26T01:07:26.160Z,1.00
2023-02-26T01:09:53.022Z,1.00
2023-02-26T01:12:19.803Z,1.00
2023-02-26T01:14:47.402Z,1.00
2023-02-26T01:17:20.719Z,1.00
2023-02-26T01:20:02.034Z,1.00
2023-02-26T01:22:52.313Z,1.00
2023-02-26T01:25:51.348Z,1.00
2023-02-26T01:28:18.722Z,1.00
2023-02-26T01:30:46.027Z,1.00
2023-02-26T01:33:25.079Z,1.00
2023-02-26T01:36:03.086Z,1.00
2023-02-26T01:38:34.899Z,1.00
2023-02-26T01:41:28.672Z,1.00
2023-02-26T01:44:05.190Z,1.00
2023-02-26T01:46:45.906Z,1.00
2023-02-26T01:49:15.940Z,1.00
2023-02-26T01:51:51.414Z,1.00
2023-02-26T01:54:22.232Z,1.00
2023-02-26T01:57:20.482Z,1.00
2023-02-26T01:59:51.080Z,1.00
2023-02-26T02:02:21.227Z,1.00
2023-02-26T02:04:49.652Z,1.00
2023-02-26T02:07:17.540Z,1.00
2023-02-26T02:09:47.448Z,1.00
2023-02-26T02:12:38.039Z,1.00
2023-02-26T02:15:28.096Z,1.00
2023-02-26T02:18:20.453Z,1.00
2023-02-26T02:21:04.072Z,1.00
2023-02-26T02:23:43.572Z,1.00
2023-02-26T02:26:38.998Z,1.00
2023-02-26T02:29:24.658Z,1.00
2023-02-26T02:31:54.905Z,1.00
2023-02-26T02:34:36.491Z,1.00
2023-02-26T02:37:25.489Z,1.00
2023-02-26T02:40:06.507Z,1.00
2023-02-26T02:43:00.641Z,1.00
2023-02-26T02:45:55.396Z,1.00
2023-02-26T02:48:28.806Z,1.00
2023-02-26T02:51:01.648Z,1.00
2023-02-26T02:53:37.007Z,1.00
2023-02-26T02:56:13.245Z,1.00
2023-02-26T02:58:46.434Z,1.00
2023-02-26T03:01:18.148Z,1.00
2023-02-26T03:03:57.384Z,1.00
2023-02-26T03:06:24.677Z,1.00
2023-02-26T03:08:52.451Z,1.00
2023-02-26T03:11:19.419Z,1.00
2023-02-26T03:13:48.464Z,1.00
2023-02-26T03:16:57.958Z,1.00
2023-02-26T03:19:43.965Z,1.00
2023-02-26T03:22:13.880Z,1.00
2023-02-26T03:24:57.939Z,1.00
2023-02-26T03:27:48.129Z,1.00
2023-02-26T03:30:20.472Z,1.00
2023-02-26T03:33:19.958Z,1.00
2023-02-26T03:36:16.042Z,1.00
2023-02-26T03:39:09.564Z,1.00
2023-02-26T03:41:55.697Z,1.00
2023-02-26T03:44:32.074Z,1.00
2023-02-26T03:47:07.376Z,1.00
2023-02-26T03:49:40.911Z,1.00
2023-02-26T03:52:08.167Z,1.00
2023-02-26T03:54:57.882Z,1.00
2023-02-26T03:57:44.344Z,1.00
2023-02-26T04:00:37.867Z,1.00
2023-02-26T04:03:23.478Z,1.00
2023-02-26T04:05:52.711Z,1.00
2023-02-26T04:08:22.364Z,1.00
2023-02-26T04:10:56.755Z,1.00
2023-02-26T04:13:24.410Z,1.00
2023-02-26T04:15:51.408Z,1.00
2023-02-26T04:18:18.115Z,1.00
2023-02-26T04:20:44.758Z,1.00
2023-02-26T04:23:11.404Z,1.00
2023-02-26T04:25:39.563Z,1.00
2023-02-26T04:28:06.723Z,1.00
2023-02-26T04:30:34.030Z,1.00
2023-02-26T04:33:01.776Z,1.00
2023-02-26T04:35:29.710Z,1.00
2023-02-26T04:37:57.561Z,1.00
2023-02-26T04:40:24.567Z,1.00
2023-02-26T04:42:51.357Z,1.00
2023-02-26T04:45:23.206Z,1.00
2023-02-26T04:47:50.260Z,1.00
2023-02-26T04:50:17.326Z,1.00
2023-02-26T04:52:46.330Z,1.00
2023-02-26T04:55:13.218Z,1.00
2023-02-26T04:57:41.077Z,1.00
2023-02-26T05:00:08.466Z,1.00
2023-02-26T05:02:37.683Z,1.00
2023-02-26T05:05:04.518Z,1.00
2023-02-26T05:07:31.156Z,1.00
2023-02-26T05:09:57.814Z,1.00
2023-02-26T05:12:24.933Z,1.00
2023-02-26T05:14:51.550Z,1.00
2023-02-26T05:17:18.363Z,1.00
2023-02-26T05:19:44.973Z,1.00
2023-02-26T05:22:12.295Z,1.00
2023-02-26T05:24:39.200Z,1.00
2023-02-26T05:27:05.852Z,1.00
2023-02-26T05:29:35.402Z,1.00
2023-02-26T05:32:04.419Z,1.00
2023-02-26T05:34:31.050Z,1.00
2023-02-26T05:36:57.665Z,1.00
2023-02-26T05:39:24.419Z,1.00
2023-02-26T05:41:53.066Z,1.00
2023-02-26T05:44:19.780Z,1.00
2023-02-26T05:46:46.403Z,1.00
2023-02-26T05:49:13.043Z,1.00
2023-02-26T05:51:39.921Z,1.00
2023-02-26T05:54:06.524Z,1.00
2023-02-26T05:56:33.154Z,1.00
2023-02-26T05:58:59.764Z,1.00
2023-02-26T06:01:26.396Z,1.00
2023-02-26T06:03:53.034Z,1.00
2023-02-26T06:06:19.795Z,1.00
2023-02-26T06:08:46.442Z,1.00
2023-02-26T06:11:13.397Z,1.00
2023-02-26T06:13:40.159Z,1.00
2023-02-26T06:16:07.191Z,1.00
2023-02-26T06:18:34.108Z,1.00
2023-02-26T06:21:01.713Z,1.00
2023-02-26T06:23:28.339Z,1.00
2023-02-26T06:25:54.986Z,1.00
2023-02-26T06:28:24.347Z,1.00
2023-02-26T06:30:53.188Z,1.00
2023-02-26T06:33:19.934Z,1.00
2023-02-26T06:35:47.798Z,1.00
2023-02-26T06:38:14.774Z,1.00
2023-02-26T06:40:41.926Z,1.00
2023-02-26T06:43:08.825Z,1.00
2023-02-26T06:45:36.009Z,1.00
2023-02-26T06:48:02.707Z,1.00
2023-02-26T06:50:29.364Z,1.00
2023-02-26T06:52:56.024Z,1.00
2023-02-26T06:55:26.750Z,1.00
2023-02-26T06:57:54.883Z,1.00
2023-02-26T07:00:22.133Z,1.00
2023-02-26T07:02:48.933Z,1.00
2023-02-26T07:05:15.664Z,1.00
2023-02-26T07:07:42.375Z,1.00
2023-02-26T07:10:11.006Z,1.00
2023-02-26T07:12:38.288Z,1.00
2023-02-26T07:15:06.463Z,1.00
2023-02-26T07:17:33.216Z,1.00
2023-02-26T07:20:06.070Z,1.00
2023-02-26T07:22:33.661Z,1.00
2023-02-26T07:25:00.371Z,1.00
2023-02-26T07:27:27.059Z,1.00
2023-02-26T07:29:53.717Z,1.00
2023-02-26T07:32:20.417Z,1.00
2023-02-26T07:34:47.207Z,1.00
2023-02-26T07:37:13.992Z,1.00
2023-02-26T07:39:40.701Z,1.00
2023-02-26T07:42:07.357Z,1.00
2023-02-26T07:44:33.961Z,1.00
2023-02-26T07:47:00.655Z,1.00
2023-02-26T07:49:27.254Z,1.00
2023-02-26T07:51:54.005Z,1.00
2023-02-26T07:54:20.604Z,1.00
2023-02-26T07:56:47.230Z,1.00
2023-02-26T07:59:13.885Z,1.00
2023-02-26T08:01:40.590Z,1.00
2023-02-26T08:04:07.391Z,1.00
2023-02-26T08:06:35.334Z,1.00
2023-02-26T08:09:02.715Z,1.00
2023-02-26T08:11:29.404Z,1.00
2023-02-26T08:13:56.039Z,1.00
2023-02-26T08:16:22.680Z,1.00
2023-02-26T08:18:49.278Z,1.00
2023-02-26T08:21:15.908Z,1.00
2023-02-26T08:23:42.542Z,1.00
2023-02-26T08:26:11.109Z,1.00
2023-02-26T08:28:37.829Z,1.00
2023-02-26T08:31:04.854Z,1.00
2023-02-26T08:33:32.281Z,1.00
2023-02-26T08:35:59.058Z,1.00
2023-02-26T08:38:27.643Z,1.00
2023-02-26T08:40:56.553Z,1.00
2023-02-26T08:43:24.206Z,1.00
2023-02-26T08:45:54.074Z,1.00
2023-02-26T08:48:21.639Z,1.00
2023-02-26T08:50:49.152Z,1.00
2023-02-26T08:53:16.147Z,1.00
2023-02-26T08:55:44.816Z,1.00
2023-02-26T08:58:11.442Z,1.00
2023-02-26T09:00:38.058Z,1.00
2023-02-26T09:03:04.757Z,1.00
2023-02-26T09:05:31.510Z,1.00
2023-02-26T09:08:04.552Z,99.90
2023-02-26T09:10:31.243Z,96.20
2023-02-26T09:12:57.995Z,98.00
2023-02-26T09:15:25.100Z,93.20
2023-02-26T09:17:51.813Z,99.90
2023-02-26T09:20:18.705Z,96.20
2023-02-26T09:22:45.291Z,93.20
2023-02-26T09:25:12.227Z,92.50
2023-02-26T09:27:39.359Z,1.00
2023-02-26T09:30:06.769Z,1.00
2023-02-26T09:32:33.666Z,1.00
2023-02-26T09:35:00.327Z,1.00
2023-02-26T09:37:26.939Z,1.00
2023-02-26T09:39:54.961Z,1.00
2023-02-26T09:42:33.686Z,1.00
2023-02-26T09:45:00.996Z,1.00
2023-02-26T09:47:40.788Z,1.00
2023-02-26T09:50:20.298Z,1.00
2023-02-26T09:53:10.910Z,1.00
2023-02-26T09:55:47.622Z,1.00
2023-02-26T09:58:27.363Z,1.00
2023-02-26T10:01:06.645Z,1.00
2023-02-26T10:03:57.253Z,1.00
2023-02-26T10:06:29.410Z,1.00
2023-02-26T10:09:16.627Z,1.00
2023-02-26T10:12:13.021Z,1.00
2023-02-26T10:14:42.478Z,1.00
2023-02-26T10:17:20.608Z,1.00
2023-02-26T10:19:52.618Z,1.00
2023-02-26T10:22:33.786Z,1.00
2023-02-26T10:25:10.819Z,1.00
2023-02-26T10:27:51.438Z,1.00
2023-02-26T10:30:32.369Z,1.00
2023-02-26T10:33:20.463Z,1.00
2023-02-26T10:35:53.038Z,1.00
2023-02-26T10:38:30.743Z,1.00
2023-02-26T10:41:05.356Z,1.00
2023-02-26T10:43:39.591Z,1.00
2023-02-26T10:46:29.819Z,1.00
2023-02-26T10:49:25.685Z,1.00
2023-02-26T10:51:57.514Z,1.00
2023-02-26T10:54:35.135Z,1.00
2023-02-26T10:57:01.904Z,1.00
2023-02-26T10:59:28.498Z,1.00
2023-02-26T11:01:56.083Z,1.00
2023-02-26T11:04:26.067Z,1.00
2023-02-26T11:07:02.853Z,1.00
2023-02-26T11:09:35.874Z,1.00
2023-02-26T11:12:13.018Z,1.00
2023-02-26T11:14:41.922Z,1.00
2023-02-26T11:17:19.264Z,1.00
2023-02-26T11:19:57.243Z,1.00
2023-02-26T11:22:27.493Z,1.00
2023-02-26T11:24:54.486Z,1.00
2023-02-26T11:27:25.658Z,1.00
2023-02-26T11:29:58.637Z,1.00
2023-02-26T11:32:35.050Z,1.00
2023-02-26T11:35:02.033Z,1.00
2023-02-26T11:37:41.753Z,1.00
2023-02-26T11:40:16.590Z,1.00
2023-02-26T11:42:59.309Z,1.00
2023-02-26T11:45:26.656Z,1.00
2023-02-26T11:48:16.486Z,1.00
2023-02-26T11:50:47.248Z,1.00
2023-02-26T11:53:31.881Z,1.00
2023-02-26T11:56:12.226Z,1.00
2023-02-26T11:58:41.073Z,1.00
2023-02-26T12:01:11.320Z,1.00
2023-02-26T12:03:42.536Z,1.00
2023-02-26T12:06:18.915Z,1.00
2023-02-26T12:08:46.347Z,1.00
2023-02-26T12:11:51.174Z,1.00
2023-02-26T12:14:43.556Z,1.00
2023-02-26T12:17:35.121Z,1.00
2023-02-26T12:20:33.415Z,1.00
2023-02-26T12:23:33.310Z,1.00
2023-02-26T12:26:24.332Z,1.00
2023-02-26T12:29:10.175Z,1.00
2023-02-26T12:31:52.410Z,1.00
2023-02-26T12:34:35.557Z,1.00
2023-02-26T12:37:07.769Z,1.00
2023-02-26T12:40:17.016Z,1.00
2023-02-26T12:43:15.172Z,1.00
2023-02-26T12:46:12.194Z,1.00
2023-02-26T12:49:06.474Z,1.00
2023-02-26T12:52:01.434Z,23.70
2023-02-26T12:54:53.029Z,39.80
2023-02-26T12:57:38.215Z,90.70
2023-02-26T13:00:17.260Z,90.90
2023-02-26T13:03:24.099Z,90.90
2023-02-26T13:06:17.009Z,90.10
2023-02-26T13:09:16.351Z,91.30
2023-02-26T13:12:09.645Z,91.40
2023-02-26T13:15:02.277Z,92.30
2023-02-26T13:17:58.702Z,92.30
2023-02-26T13:20:27.302Z,92.50
2023-02-26T13:22:59.162Z,90.90
2023-02-26T13:25:41.194Z,90.40
2023-02-26T13:28:35.526Z,89.90
2023-02-26T13:31:04.162Z,90.40
2023-02-26T13:33:33.413Z,90.10
2023-02-26T13:36:01.301Z,90.10
2023-02-26T13:38:33.793Z,90.40
2023-02-26T13:41:16.281Z,90.60
2023-02-26T13:44:26.200Z,90.30
2023-02-26T13:47:12.986Z,91.60
2023-02-26T13:50:13.589Z,91.00
2023-02-26T13:52:54.900Z,91.70
2023-02-26T13:55:46.543Z,91.80
2023-02-26T13:58:23.685Z,91.30
2023-02-26T14:01:13.642Z,91.60
2023-02-26T14:03:51.035Z,91.70
2023-02-26T14:06:24.211Z,91.60
2023-02-26T14:08:54.397Z,91.80
2023-02-26T14:11:33.235Z,92.80
2023-02-26T14:14:35.152Z,91.90
2023-02-26T14:17:07.860Z,93.50
2023-02-26T14:19:39.424Z,92.30
2023-02-26T14:22:28.860Z,93.30
2023-02-26T14:25:09.806Z,93.90
2023-02-26T14:27:41.996Z,92.00
2023-02-26T14:30:08.926Z,91.60
2023-02-26T14:32:58.714Z,90.80
2023-02-26T14:35:32.717Z,91.40
2023-02-26T14:38:07.790Z,92.10
2023-02-26T14:40:44.734Z,91.00
2023-02-26T14:43:19.800Z,90.50
2023-02-26T14:45:47.420Z,90.30
2023-02-26T14:48:17.723Z,90.20
2023-02-26T14:50:55.386Z,90.20
2023-02-26T14:53:50.916Z,90.80
2023-02-26T14:56:28.761Z,91.00
2023-02-26T14:59:05.357Z,90.10
2023-02-26T15:01:38.808Z,90.70
2023-02-26T15:04:17.402Z,90.10
2023-02-26T15:07:10.171Z,90.00
2023-02-26T15:09:39.767Z,90.20
2023-02-26T15:12:15.442Z,90.60
2023-02-26T15:15:17.099Z,90.90
2023-02-26T15:18:08.364Z,90.90
2023-02-26T15:20:43.789Z,90.60
2023-02-26T15:23:50.449Z,90.50
2023-02-26T15:26:40.370Z,90.60
2023-02-26T15:29:09.980Z,91.00
2023-02-26T15:31:44.842Z,90.40
2023-02-26T15:34:12.717Z,90.80
2023-02-26T15:36:44.417Z,90.80
2023-02-26T15:39:12.951Z,90.70
2023-02-26T15:41:40.232Z,90.60
2023-02-26T15:44:10.714Z,90.80
2023-02-26T15:46:45.269Z,90.80
2023-02-26T15:49:29.126Z,90.50
2023-02-26T15:51:57.459Z,90.60
2023-02-26T15:54:27.387Z,90.80
2023-02-26T15:56:54.132Z,91.10
2023-02-26T15:59:30.268Z,91.20
2023-02-26T16:01:57.026Z,91.40
2023-02-26T16:04:24.176Z,91.20
2023-02-26T16:06:57.029Z,90.00
2023-02-26T16:09:38.917Z,90.30
2023-02-26T16:12:11.831Z,90.30
2023-02-26T16:14:43.777Z,90.80
2023-02-26T16:17:14.995Z,90.70
2023-02-26T16:19:45.474Z,90.40
2023-02-26T16:22:27.567Z,91.10
2023-02-26T16:24:58.991Z,91.50
2023-02-26T16:27:29.118Z,90.30
2023-02-26T16:29:59.074Z,90.50
2023-02-26T16:32:29.183Z,90.60
2023-02-26T16:34:59.513Z,90.40
2023-02-26T16:37:28.854Z,90.30
2023-02-26T16:39:58.527Z,90.60
2023-02-26T16:42:49.999Z,90.30
2023-02-26T16:45:35.263Z,90.30
2023-02-26T16:48:16.370Z,92.20
2023-02-26T16:50:43.304Z,90.20
2023-02-26T16:53:15.860Z,91.20
2023-02-26T16:55:47.233Z,90.40
2023-02-26T16:58:15.874Z,90.40
2023-02-26T17:00:45.631Z,90.40
2023-02-26T17:03:19.062Z,90.30
2023-02-26T17:06:08.430Z,90.70
2023-02-26T17:08:53.226Z,91.20
2023-02-26T17:11:29.795Z,90.50
2023-02-26T17:14:19.017Z,90.70
2023-02-26T17:16:47.123Z,90.30
2023-02-26T17:19:13.888Z,90.30
2023-02-26T17:21:54.065Z,90.90
2023-02-26T17:24:32.039Z,91.20
2023-02-26T17:27:01.090Z,91.30
2023-02-26T17:29:37.898Z,91.00
2023-02-26T17:32:05.990Z,91.10
2023-02-26T17:34:35.120Z,91.20
2023-02-26T17:37:05.519Z,91.60
2023-02-26T17:39:32.134Z,91.20
2023-02-26T17:41:59.250Z,91.30
2023-02-26T17:44:26.642Z,91.30
2023-02-26T17:46:53.319Z,91.30
2023-02-26T17:49:19.897Z,91.70
2023-02-26T17:51:46.534Z,91.40
2023-02-26T17:54:13.090Z,1.00
2023-02-26T17:56:41.618Z,1.00
2023-02-26T17:59:09.323Z,1.00
2023-02-26T18:01:36.312Z,1.00
2023-02-26T18:04:03.556Z,1.00
2023-02-26T18:06:35.668Z,1.00
2023-02-26T18:09:05.589Z,1.00
2023-02-26T18:11:32.996Z,1.00
2023-02-26T18:14:01.054Z,1.00
2023-02-26T18:16:39.198Z,1.00
2023-02-26T18:19:07.409Z,1.00
2023-02-26T18:21:34.044Z,1.00
2023-02-26T18:24:01.112Z,1.00
2023-02-26T18:26:31.752Z,1.00
2023-02-26T18:28:58.473Z,1.00
2023-02-26T18:31:34.525Z,1.00
2023-02-26T18:34:02.677Z,1.00
2023-02-26T18:36:34.465Z,1.00
2023-02-26T18:39:07.516Z,1.00
2023-02-26T18:41:34.585Z,1.00
2023-02-26T18:44:01.312Z,1.00
2023-02-26T18:46:29.818Z,1.00
2023-02-26T18:48:56.612Z,1.00
2023-02-26T18:51:23.225Z,1.00
2023-02-26T18:53:49.814Z,1.00
2023-02-26T18:56:16.417Z,1.00
2023-02-26T18:58:43.056Z,1.00
2023-02-26T19:01:09.687Z,1.00
2023-02-26T19:03:36.323Z,1.00
2023-02-26T19:06:05.892Z,1.00
2023-02-26T19:08:33.015Z,1.00
2023-02-26T19:10:59.795Z,1.00
2023-02-26T19:13:27.074Z,1.00
2023-02-26T19:15:53.866Z,1.00
2023-02-26T19:18:20.728Z,1.00
2023-02-26T19:20:47.445Z,1.00
2023-02-26T19:23:14.553Z,1.00
2023-02-26T19:25:42.717Z,1.00
2023-02-26T19:28:09.739Z,1.00
2023-02-26T19:30:38.375Z,1.00
2023-02-26T19:33:05.600Z,1.00
2023-02-26T19:35:32.311Z,1.00
2023-02-26T19:37:58.963Z,1.00
2023-02-26T19:40:26.362Z,1.00
2023-02-26T19:42:52.950Z,1.00
2023-02-26T19:45:20.096Z,1.00
2023-02-26T19:47:46.714Z,1.00
2023-02-26T19:50:18.983Z,1.00
2023-02-26T19:52:45.750Z,1.00
2023-02-26T19:55:14.318Z,1.00
2023-02-26T19:57:41.046Z,1.00
2023-02-26T20:00:08.957Z,1.00
2023-02-26T20:02:43.007Z,1.00
2023-02-26T20:05:15.790Z,1.00
2023-02-26T20:07:46.246Z,1.00
2023-02-26T20:10:15.611Z,1.00
2023-02-26T20:12:44.002Z,1.00
2023-02-26T20:15:11.228Z,1.00
2023-02-26T20:17:38.206Z,1.00
2023-02-26T20:20:06.328Z,1.00
2023-02-26T20:22:33.097Z,1.00
2023-02-26T20:24:59.939Z,1.00
2023-02-26T20:27:26.668Z,1.00
2023-02-26T20:29:53.264Z,1.00
2023-02-26T20:32:20.286Z,1.00
2023-02-26T20:34:47.153Z,1.00
2023-02-26T20:37:13.749Z,1.00
2023-02-26T20:39:40.417Z,1.00
2023-02-26T20:42:07.028Z,1.00
2023-02-26T20:44:33.662Z,1.00
2023-02-26T20:47:02.397Z,1.00
2023-02-26T20:49:30.293Z,1.00
2023-02-26T20:51:57.294Z,1.00
2023-02-26T20:54:24.206Z,1.00
2023-02-26T20:56:50.942Z,1.00
2023-02-26T20:59:18.250Z,1.00
2023-02-26T21:01:45.948Z,1.00
2023-02-26T21:04:12.660Z,1.00
2023-02-26T21:06:39.653Z,1.00
2023-02-26T21:09:08.491Z,1.00
2023-02-26T21:11:36.870Z,1.00
2023-02-26T21:14:05.065Z,1.00
2023-02-26T21:16:32.229Z,1.00
2023-02-26T21:19:03.595Z,1.00
2023-02-26T21:21:31.001Z,1.00
2023-02-26T21:23:57.827Z,1.00
2023-02-26T21:26:24.475Z,1.00
2023-02-26T21:28:51.174Z,1.00
2023-02-26T21:31:19.830Z,1.00
2023-02-26T21:33:46.555Z,1.00
2023-02-26T21:36:14.363Z,1.00
2023-02-26T21:38:42.236Z,1.00
2023-02-26T21:41:08.990Z,1.00
2023-02-26T21:43:35.978Z,1.00
2023-02-26T21:46:03.531Z,1.00
2023-02-26T21:48:30.157Z,1.00
2023-02-26T21:50:57.576Z,1.00
2023-02-26T21:53:24.155Z,1.00
2023-02-26T21:55:50.796Z,1.00
2023-02-26T21:58:17.431Z,1.00
2023-02-26T22:00:44.463Z,1.00
2023-02-26T22:03:11.330Z,1.00
2023-02-26T22:05:37.985Z,1.00
2023-02-26T22:08:04.700Z,1.00
2023-02-26T22:10:31.492Z,1.00
2023-02-26T22:12:58.287Z,1.00
2023-02-26T22:15:25.052Z,1.00
2023-02-26T22:17:51.672Z,1.00
2023-02-26T22:20:18.391Z,1.00
2023-02-26T22:22:45.092Z,1.00
2023-02-26T22:25:12.658Z,1.00
2023-02-26T22:27:39.453Z,1.00
2023-02-26T22:30:08.018Z,1.00
2023-02-26T22:32:34.924Z,1.00
2023-02-26T22:35:01.556Z,1.00
2023-02-26T22:37:28.207Z,1.00
2023-02-26T22:39:54.906Z,1.00
2023-02-26T22:42:21.512Z,1.00
2023-02-26T22:44:48.187Z,1.00
2023-02-26T22:47:14.806Z,1.00
2023-02-26T22:49:41.488Z,1.00
2023-02-26T22:52:08.108Z,1.00
2023-02-26T22:54:35.695Z,1.00
2023-02-26T22:57:02.518Z,1.00
2023-02-26T22:59:29.184Z,1.00
2023-02-26T23:01:55.882Z,1.00
2023-02-26T23:04:22.643Z,1.00
2023-02-26T23:06:49.236Z,1.00
2023-02-26T23:09:16.159Z,1.00
2023-02-26T23:11:42.946Z,1.00
2023-02-26T23:14:09.532Z,1.00
2023-02-26T23:16:36.167Z,1.00
2023-02-26T23:19:02.877Z,1.00
2023-02-26T23:21:30.827Z,1.00
2023-02-26T23:23:58.343Z,1.00
2023-02-26T23:26:25.715Z,1.00
2023-02-26T23:28:52.672Z,1.00
2023-02-26T23:31:19.529Z,1.00
2023-02-26T23:33:46.405Z,1.00
2023-02-26T23:36:13.005Z,1.00
2023-02-26T23:38:39.608Z,1.00
2023-02-26T23:41:06.318Z,1.00
2023-02-26T23:43:33.285Z,1.00
2023-02-26T23:45:59.955Z,1.00
2023-02-26T23:48:27.366Z,1.00
2023-02-26T23:50:55.786Z,1.00
2023-02-26T23:53:22.816Z,1.00
2023-02-26T23:55:52.410Z,1.00
2023-02-26T23:58:19.018Z,1.00
